Time;durP1;ratioP1;P1;durP2;ratioP2;P2;SDS_P1;SDS_P2;PMS_P1;PMS_P2;Temp;Humidity;BMP_temperature;BMP_pressure;BME280_temperature;BME280_humidity;BME280_pressure;Samples;Min_cycle;Max_cycle;Signal;HPM_P1;HPM_P2
2023/03/14 00:02:05;;;;;;;;;;;;;;;-144.98;100.00;62585.19;4940727;29;19925;-67
2023/03/14 00:05:08;;;;;;;;;;;;;;;-144.98;100.00;62585.19;4941219;29;19930;-67
2023/03/14 00:08:11;;;;;;;;;;;;;;;-144.98;100.00;62585.19;4941508;29;19951;-67
2023/03/14 00:11:17;;;;;;;;;;;;;;;-144.98;100.00;62585.19;4940112;29;19926;-67
2023/03/14 00:14:20;;;;;;;;;;;;;;;-144.98;100.00;62585.19;4939864;29;20390;-67
2023/03/14 00:17:23;;;;;;;;;;;;;;;-144.98;100.00;62585.19;4943047;29;19966;-67
2023/03/14 00:20:27;;;;;;;;;;;;;;;-144.98;100.00;62585.19;4939247;29;20329;-67
2023/03/14 00:23:31;;;;;;;;;;;;;;;-144.98;100.00;62585.19;4946792;28;20347;-67
2023/03/14 00:26:34;;;;;;;;;;;;;;;-144.98;100.00;62585.19;4945437;29;20351;-67
2023/03/14 00:29:37;;;;;;;;;;;;;;;-144.98;100.00;62585.19;4942891;29;19973;-67
2023/03/14 00:32:40;;;;;;;;;;;;;;;-144.98;100.00;62585.19;4943130;29;19986;-67
2023/03/14 00:35:55;;;;;;;;;;;;;;;-144.98;100.00;62585.19;4944074;29;19974;-67
2023/03/14 00:38:58;;;;;;;;;;;;;;;-144.98;100.00;62585.19;4943017;29;19956;-67
2023/03/14 00:42:02;;;;;;;;;;;;;;;-144.98;100.00;62585.19;4940849;29;19961;-67
2023/03/14 00:45:07;;;;;;;;;;;;;;;-144.98;100.00;62585.19;4943678;29;20414;-67
2023/03/14 00:48:10;;;;;;;;;;;;;;;-144.98;100.00;62585.19;4943959;29;19928;-67
2023/03/14 00:51:14;;;;;;;;;;;;;;;-144.98;100.00;62585.19;4918680;29;20010;-67
2023/03/14 00:54:20;;;;;;;;;;;;;;;-144.98;100.00;62585.19;4919084;29;19974;-67
2023/03/14 00:57:23;;;;;;;;;;;;;;;-144.98;100.00;62585.19;4918706;29;19926;-67
2023/03/14 01:00:26;;;;;;;;;;;;;;;-144.98;100.00;62585.19;4907221;29;20323;-67
2023/03/14 01:03:29;;;;;;;;;;;;;;;-144.98;100.00;62585.19;4890011;29;20002;-67
2023/03/14 01:06:32;;;;;;;;;;;;;;;-144.98;100.00;62585.19;4917022;29;19925;-67
2023/03/14 01:09:35;;;;;;;;;;;;;;;-144.98;100.00;62585.19;4917327;29;20452;-67
2023/03/14 01:12:39;;;;;;;;;;;;;;;-144.98;100.00;62585.19;4918276;29;19974;-67
2023/03/14 01:15:42;;;;;;;;;;;;;;;-144.98;100.00;62585.19;4907092;29;19925;-67
2023/03/14 01:18:48;;;;;;;;;;;;;;;-144.98;100.00;62585.19;4918748;29;19967;-67
2023/03/14 01:21:52;;;;;;;;;;;;;;;-144.98;100.00;62585.19;4918770;29;19992;-68
2023/03/14 01:24:57;;;;;;;;;;;;;;;-144.98;100.00;62585.19;4916893;29;20523;-67
2023/03/14 01:28:01;;;;;;;;;;;;;;;-144.98;100.00;62585.19;4915902;29;19941;-67
2023/03/14 01:31:06;;;;;;;;;;;;;;;-144.98;100.00;62585.19;4898935;29;20390;-67
2023/03/14 01:34:09;;;;;;;;;;;;;;;-144.98;100.00;62585.19;4918240;29;20299;-67
2023/03/14 01:37:14;;;;;;;;;;;;;;;-144.98;100.00;62585.19;4902930;29;19990;-67
2023/03/14 01:40:19;;;;;;;;;;;;;;;-144.98;100.00;62585.19;4917161;29;19926;-67
2023/03/14 01:43:27;;;;;;;;;;;;;;;-144.98;100.00;62585.19;4905484;29;20283;-67
2023/03/14 01:46:41;;;;;;;;;;;;;;;-144.98;100.00;62585.19;4895740;29;20019;-67
2023/03/14 01:49:52;;;;;;;;;;;;;;;-144.98;100.00;62585.19;4892826;29;20296;-67
2023/03/14 01:52:55;;;;;;;;;;;;;;;-144.98;100.00;62585.19;4917202;29;19974;-67
2023/03/14 01:56:03;;;;;;;;;;;;;;;-144.98;100.00;62585.19;4917345;29;19974;-67
2023/03/14 01:59:10;;;;;;;;;;;;;;;-144.98;100.00;62585.19;4895502;29;19974;-67
2023/03/14 02:02:15;;;;;;;;;;;;;;;-144.98;100.00;62585.19;4906327;29;19975;-67
2023/03/14 02:05:21;;;;;;;;;;;;;;;-144.98;100.00;62585.19;4906116;29;20044;-67
2023/03/14 02:08:30;;;;;;;;;;;;;;;-144.98;100.00;62585.19;4906108;29;20005;-67
2023/03/14 02:11:38;;;;;;;;;;;;;;;-144.98;100.00;62585.19;4924302;29;19925;-67
2023/03/14 02:15:00;;;;;;;;;;;;;;;-144.98;100.00;62585.19;4944045;29;19929;-67
2023/03/14 02:18:19;;;;;;;;;;;;;;;-144.98;100.00;62585.19;4944187;29;19941;-67
2023/03/14 02:22:03;;;;;;;;;;;;;;;-144.98;100.00;62585.19;4956144;29;19926;-67
2023/03/14 02:25:22;;;;;;;;;;;;;;;-144.98;100.00;62585.19;4943319;29;19977;-67
2023/03/14 02:28:30;;;;;;;;;;;;;;;-144.98;100.00;62585.19;4943561;29;19925;-67
2023/03/14 02:31:37;;;;;;;;;;;;;;;-144.98;100.00;62585.19;4932442;29;20263;-67
2023/03/14 02:34:42;;;;;;;;;;;;;;;-144.98;100.00;62585.19;4955087;29;19969;-67
2023/03/14 02:38:03;;;;;;;;;;;;;;;-144.98;100.00;62585.19;4943390;29;19925;-67
2023/03/14 02:41:14;;;;;;;;;;;;;;;-144.98;100.00;62585.19;4941794;29;19941;-67
2023/03/14 02:44:23;;;;;;;;;;;;;;;-144.98;100.00;62585.19;4941854;29;19946;-67
2023/03/14 02:47:28;;;;;;;;;;;;;;;-144.98;100.00;62585.19;4942771;29;19929;-67
2023/03/14 02:50:33;;;;;;;;;;;;;;;-144.98;100.00;62585.19;4942794;29;19929;-67
2023/03/14 02:53:38;;;;;;;;;;;;;;;-144.98;100.00;62585.19;4932355;29;19933;-67
2023/03/14 02:56:46;;;;;;;;;;;;;;;-144.98;100.00;62585.19;4943172;29;19924;-67
2023/03/14 02:59:49;;;;;;;;;;;;;;;-144.98;100.00;62585.19;4942986;29;19925;-67
2023/03/14 03:03:07;;;;;;;;;;;;;;;-144.98;100.00;62585.19;4943081;29;19969;-67
2023/03/14 03:06:20;;;;;;;;;;;;;;;-144.98;100.00;62585.19;4942755;29;19930;-67
2023/03/14 03:09:23;;;;;;;;;;;;;;;-144.98;100.00;62585.19;4955042;29;19946;-68
2023/03/14 03:12:28;;;;;;;;;;;;;;;-144.98;100.00;62585.19;4938500;29;19941;-67
2023/03/14 03:15:32;;;;;;;;;;;;;;;-144.98;100.00;62585.19;4938921;29;19966;-67
2023/03/14 03:18:35;;;;;;;;;;;;;;;-144.98;100.00;62585.19;4952794;29;19973;-67
2023/03/14 03:21:38;;;;;;;;;;;;;;;-144.98;100.00;62585.19;4954757;29;20302;-68
2023/03/14 03:24:41;;;;;;;;;;;;;;;-144.98;100.00;62585.19;4942912;29;20011;-67
2023/03/14 03:27:44;;;;;;;;;;;;;;;-144.98;100.00;62585.19;4955272;29;19946;-68
2023/03/14 03:30:47;;;;;;;;;;;;;;;-144.98;100.00;62585.19;4942495;29;19925;-68
2023/03/14 03:33:51;;;;;;;;;;;;;;;-144.98;100.00;62585.19;4954673;29;19965;-67
2023/03/14 03:36:58;;;;;;;;;;;;;;;-144.98;100.00;62585.19;4952838;29;20290;-67
2023/03/14 03:40:06;;;;;;;;;;;;;;;-144.98;100.00;62585.19;4943041;29;19972;-67
2023/03/14 03:43:12;;;;;;;;;;;;;;;-144.98;100.00;62585.19;4954114;29;19965;-67
2023/03/14 03:46:18;;;;;;;;;;;;;;;-144.98;100.00;62585.19;4942288;29;19928;-67
2023/03/14 03:49:20;;;;;;;;;;;;;;;-144.98;100.00;62585.19;4942689;29;19969;-67
2023/03/14 03:52:23;;;;;;;;;;;;;;;-144.98;100.00;62585.19;4937527;29;19973;-67
2023/03/14 03:55:27;;;;;;;;;;;;;;;-144.98;100.00;62585.19;4946294;29;19972;-67
2023/03/14 03:58:31;;;;;;;;;;;;;;;-144.98;100.00;62585.19;4946358;29;19929;-67
2023/03/14 04:01:33;;;;;;;;;;;;;;;-144.98;100.00;62585.19;4957812;29;20134;-67
2023/03/14 04:04:38;;;;;;;;;;;;;;;-144.98;100.00;62585.19;4958037;29;19945;-67
2023/03/14 04:07:41;;;;;;;;;;;;;;;-144.98;100.00;62585.19;4943026;29;20014;-67
2023/03/14 04:10:45;;;;;;;;;;;;;;;-144.98;100.00;62585.19;4957152;29;19966;-67
2023/03/14 04:13:59;;;;;;;;;;;;;;;-144.98;100.00;62585.19;4957358;29;19925;-67
2023/03/14 04:17:02;;;;;;;;;;;;;;;-144.98;100.00;62585.19;4946022;29;19924;-67
2023/03/14 04:20:13;;;;;;;;;;;;;;;-144.98;100.00;62585.19;4946122;29;19929;-67
2023/03/14 04:23:17;;;;;;;;;;;;;;;-144.98;100.00;62585.19;4939343;29;19926;-67
2023/03/14 04:26:21;;;;;;;;;;;;;;;-144.98;100.00;62585.19;4958277;29;19929;-67
2023/03/14 04:29:24;;;;;;;;;;;;;;;-144.98;100.00;62585.19;4941076;29;20008;-67
2023/03/14 04:32:30;;;;;;;;;;;;;;;-144.98;100.00;62585.19;4957926;29;19983;-67
2023/03/14 04:35:36;;;;;;;;;;;;;;;-144.98;100.00;62585.19;4946089;29;19924;-67
2023/03/14 04:38:45;;;;;;;;;;;;;;;-144.98;100.00;62585.19;4945800;29;20017;-66
2023/03/14 04:41:50;;;;;;;;;;;;;;;-144.98;100.00;62585.19;4945133;29;20441;-66
2023/03/14 04:44:53;;;;;;;;;;;;;;;-144.98;100.00;62585.19;4957420;29;20005;-65
2023/03/14 04:47:59;;;;;;;;;;;;;;;-144.98;100.00;62585.19;4945292;29;19949;-67
2023/03/14 04:51:02;;;;;;;;;;;;;;;-144.98;100.00;62585.19;4945695;29;19926;-65
2023/03/14 04:54:09;;;;;;;;;;;;;;;-144.98;100.00;62585.19;4932780;29;20020;-66
2023/03/14 04:57:12;;;;;;;;;;;;;;;-144.98;100.00;62585.19;4944896;29;19925;-66
2023/03/14 05:00:19;;;;;;;;;;;;;;;-144.98;100.00;62585.19;4945303;29;19965;-65
2023/03/14 05:03:35;;;;;;;;;;;;;;;-144.98;100.00;62585.19;4945037;29;19925;-65
2023/03/14 05:07:06;;;;;;;;;;;;;;;-144.98;100.00;62585.19;4945156;29;19929;-65
2023/03/14 05:10:23;;;;;;;;;;;;;;;-144.98;100.00;62585.19;4940003;29;19925;-65
2023/03/14 05:13:50;;;;;;;;;;;;;;;-144.98;100.00;62585.19;4944725;29;19942;-65
2023/03/14 05:17:22;;;;;;;;;;;;;;;-144.98;100.00;62585.19;4957073;29;19926;-65
2023/03/14 05:20:55;;;;;;;;;;;;;;;-144.98;100.00;62585.19;4956434;29;19925;-71
2023/03/14 05:24:17;;;;;;;;;;;;;;;-144.98;100.00;62585.19;4956246;29;19977;-66
2023/03/14 05:27:47;;;;;;;;;;;;;;;-144.98;100.00;62585.19;4944785;29;19925;-67
2023/03/14 05:31:20;;;;;;;;;;;;;;;-144.98;100.00;62585.19;4956857;29;20287;-68
2023/03/14 05:34:30;;;;;;;;;;;;;;;-144.98;100.00;62585.19;4944786;29;19925;-67
2023/03/14 05:37:47;;;;;;;;;;;;;;;-144.98;100.00;62585.19;4956378;29;19975;-67
2023/03/14 05:40:56;;;;;;;;;;;;;;;-144.98;100.00;62585.19;4956888;29;19990;-74
2023/03/14 05:44:22;;;;;;;;;;;;;;;-144.98;100.00;62585.19;4942927;29;19976;-67
2023/03/14 05:47:49;;;;;;;;;;;;;;;-144.98;100.00;62585.19;4956285;29;19966;-67
2023/03/14 05:51:06;;;;;;;;;;;;;;;-144.98;100.00;62585.19;4944770;29;19929;-67
2023/03/14 05:54:24;;;;;;;;;;;;;;;-144.98;100.00;62585.19;4941970;29;20005;-67
2023/03/14 05:57:54;;;;;;;;;;;;;;;-144.98;100.00;62585.19;4954845;29;19965;-67
2023/03/14 06:01:13;;;;;;;;;;;;;;;-144.98;100.00;62585.19;4943216;29;19981;-67
2023/03/14 06:04:33;;;;;;;;;;;;;;;-144.98;100.00;62585.19;4943089;29;20394;-67
2023/03/14 06:07:36;;;;;;;;;;;;;;;-144.98;100.00;62585.19;4943751;29;20393;-67
2023/03/14 06:14:11;;;;;;;;;;;;;;;-144.98;100.00;62585.19;4936610;29;19926;-67
2023/03/14 06:17:18;;;;;;;;;;;;;;;-144.98;100.00;62585.19;4944013;29;20350;-67
2023/03/14 06:20:28;;;;;;;;;;;;;;;-144.98;100.00;62585.19;4943634;29;19965;-67
2023/03/14 06:23:31;;;;;;;;;;;;;;;-144.98;100.00;62585.19;4954701;28;19972;-67
2023/03/14 06:26:36;;;;;;;;;;;;;;;-144.98;100.00;62585.19;4943142;29;19930;-67
2023/03/14 06:29:39;;;;;;;;;;;;;;;-144.98;100.00;62585.19;4943613;29;19974;-67
2023/03/14 06:32:48;;;;;;;;;;;;;;;-144.98;100.00;62585.19;4953519;29;19925;-68
2023/03/14 06:36:19;;;;;;;;;;;;;;;-144.98;100.00;62585.19;4939531;29;19925;-68
2023/03/14 06:39:24;;;;;;;;;;;;;;;-144.98;100.00;62585.19;4953884;29;19925;-68
2023/03/14 06:42:36;;;;;;;;;;;;;;;-144.98;100.00;62585.19;4943289;29;19961;-69
2023/03/14 06:45:40;;;;;;;;;;;;;;;-144.98;100.00;62585.19;4941528;29;20069;-68
2023/03/14 06:48:43;;;;;;;;;;;;;;;-144.98;100.00;62585.19;4954771;29;20290;-68
2023/03/14 06:51:46;;;;;;;;;;;;;;;-144.98;100.00;62585.19;4954459;29;19926;-67
2023/03/14 06:54:50;;;;;;;;;;;;;;;-144.98;100.00;62585.19;4943089;29;19946;-67
2023/03/14 06:57:57;;;;;;;;;;;;;;;-144.98;100.00;62585.19;4954078;29;20005;-67
2023/03/14 07:01:00;;;;;;;;;;;;;;;-144.98;100.00;62585.19;4924172;29;19929;-67
2023/03/14 07:04:09;;;;;;;;;;;;;;;-144.98;100.00;62585.19;4934692;29;19970;-68
2023/03/14 07:07:16;;;;;;;;;;;;;;;-144.98;100.00;62585.19;4935697;29;19942;-68
2023/03/14 07:10:19;;;;;;;;;;;;;;;-144.98;100.00;62585.19;4942387;29;19973;-68
2023/03/14 07:13:22;;;;;;;;;;;;;;;-144.98;100.00;62585.19;4912188;29;19992;-68
2023/03/14 07:16:37;;;;;;;;;;;;;;;-144.98;100.00;62585.19;4915079;29;20012;-68
2023/03/14 07:19:40;;;;;;;;;;;;;;;-144.98;100.00;62585.19;4916535;29;19926;-68
2023/03/14 07:22:51;;;;;;;;;;;;;;;-144.98;100.00;62585.19;4915850;29;19927;-68
2023/03/14 07:26:01;;;;;;;;;;;;;;;-144.98;100.00;62585.19;4905723;29;19929;-68
2023/03/14 07:29:04;;;;;;;;;;;;;;;-144.98;100.00;62585.19;4920893;29;19971;-68
2023/03/14 07:32:08;;;;;;;;;;;;;;;-144.98;100.00;62585.19;4920956;29;20389;-68
2023/03/14 07:35:11;;;;;;;;;;;;;;;-144.98;100.00;62585.19;4920734;29;20315;-68
2023/03/14 07:38:17;;;;;;;;;;;;;;;-144.98;100.00;62585.19;4909044;29;19994;-68
2023/03/14 07:41:40;;;;;;;;;;;;;;;-144.98;100.00;62585.19;4920944;29;19981;-68
2023/03/14 07:45:09;;;;;;;;;;;;;;;-144.98;100.00;62585.19;4908744;29;20406;-68
2023/03/14 07:48:12;;;;;;;;;;;;;;;-144.98;100.00;62585.19;4920454;29;19973;-69
2023/03/14 07:51:15;;;;;;;;;;;;;;;-144.98;100.00;62585.19;4920477;29;19951;-68
2023/03/14 07:54:18;;;;;;;;;;;;;;;-144.98;100.00;62585.19;4920528;29;19926;-67
2023/03/14 07:57:22;;;;;;;;;;;;;;;-144.98;100.00;62585.19;4920192;29;19967;-67
2023/03/14 08:00:25;;;;;;;;;;;;;;;-144.98;100.00;62585.19;4920308;29;19967;-67
2023/03/14 08:03:28;;;;;;;;;;;;;;;-144.98;100.00;62585.19;4920069;29;19927;-67
2023/03/14 08:06:31;;;;;;;;;;;;;;;-144.98;100.00;62585.19;4920156;29;20024;-66
2023/03/14 08:09:59;;;;;;;;;;;;;;;-144.98;100.00;62585.19;4920113;29;19991;-66
2023/03/14 08:13:12;;;;;;;;;;;;;;;-144.98;100.00;62585.19;4920038;29;19969;-66
2023/03/14 08:16:16;;;;;;;;;;;;;;;-144.98;100.00;62585.19;4919954;29;19926;-67
2023/03/14 08:19:19;;;;;;;;;;;;;;;-144.98;100.00;62585.19;4919987;29;19926;-67
2023/03/14 08:22:26;;;;;;;;;;;;;;;-144.98;100.00;62585.19;4920075;29;19947;-67
2023/03/14 08:25:34;;;;;;;;;;;;;;;-144.98;100.00;62585.19;4919785;29;19996;-67
2023/03/14 08:28:42;;;;;;;;;;;;;;;-144.98;100.00;62585.19;4919895;29;20430;-67
2023/03/14 08:31:49;;;;;;;;;;;;;;;-144.98;100.00;62585.19;4919705;29;19967;-67
2023/03/14 08:34:54;;;;;;;;;;;;;;;-144.98;100.00;62585.19;4919574;29;20036;-67
2023/03/14 08:38:00;;;;;;;;;;;;;;;-144.98;100.00;62585.19;4918989;29;20395;-67
2023/03/14 08:41:04;;;;;;;;;;;;;;;-144.98;100.00;62585.19;4919583;29;20056;-67
2023/03/14 08:44:08;;;;;;;;;;;;;;;-144.98;100.00;62585.19;4919455;29;19930;-67
2023/03/14 08:47:11;;;;;;;;;;;;;;;-144.98;100.00;62585.19;4919429;29;19925;-66
2023/03/14 08:50:14;;;;;;;;;;;;;;;-144.98;100.00;62585.19;4919290;29;19933;-66
2023/03/14 08:53:18;;;;;;;;;;;;;;;-144.98;100.00;62585.19;4919219;29;19942;-67
2023/03/14 08:56:27;;;;;;;;;;;;;;;-144.98;100.00;62585.19;4919085;29;20390;-67
2023/03/14 08:59:30;;;;;;;;;;;;;;;-144.98;100.00;62585.19;4919316;29;19961;-67
2023/03/14 09:03:19;;;;;;;;;;;;;;;-144.98;100.00;62585.19;4916511;29;19973;-67
2023/03/14 09:06:22;;;;;;;;;;;;;;;-144.98;100.00;62585.19;4912793;29;19930;-68
2023/03/14 09:09:26;;;;;;;;;;;;;;;-144.98;100.00;62585.19;4928922;29;19929;-66
2023/03/14 09:12:30;;;;;;;;;;;;;;;-144.98;100.00;62585.19;4938019;29;20389;-67
2023/03/14 09:15:33;;;;;;;;;;;;;;;-144.98;100.00;62585.19;4937995;29;19926;-67
2023/03/14 09:18:36;;;;;;;;;;;;;;;-144.98;100.00;62585.19;4926395;29;19930;-67
2023/03/14 09:21:39;;;;;;;;;;;;;;;-144.98;100.00;62585.19;4926218;29;19970;-67
2023/03/14 09:24:44;;;;;;;;;;;;;;;-144.98;100.00;62585.19;4937885;29;20298;-67
2023/03/14 09:27:52;;;;;;;;;;;;;;;-144.98;100.00;62585.19;4937810;29;19926;-67
2023/03/14 09:30:55;;;;;;;;;;;;;;;-144.98;100.00;62585.19;4937791;29;20447;-67
2023/03/14 09:33:59;;;;;;;;;;;;;;;-144.98;100.00;62585.19;4937691;29;19926;-67
2023/03/14 09:37:02;;;;;;;;;;;;;;;-144.98;100.00;62585.19;4937684;29;19941;-67
2023/03/14 09:40:10;;;;;;;;;;;;;;;-144.98;100.00;62585.19;4937655;29;19955;-67
2023/03/14 09:43:14;;;;;;;;;;;;;;;-144.98;100.00;62585.19;4937548;29;19926;-67
2023/03/14 09:46:17;;;;;;;;;;;;;;;-144.98;100.00;62585.19;4937698;29;19934;-66
2023/03/14 09:49:29;;;;;;;;;;;;;;;-144.98;100.00;62585.19;4924583;29;20022;-66
2023/03/14 09:52:33;;;;;;;;;;;;;;;-144.98;100.00;62585.19;4925789;29;19974;-67
2023/03/14 09:55:36;;;;;;;;;;;;;;;-144.98;100.00;62585.19;4933693;29;19950;-66
2023/03/14 09:58:41;;;;;;;;;;;;;;;-144.98;100.00;62585.19;4937176;29;19935;-66
2023/03/14 10:01:45;;;;;;;;;;;;;;;-144.98;100.00;62585.19;4937252;29;19926;-67
2023/03/14 10:04:49;;;;;;;;;;;;;;;-144.98;100.00;62585.19;4936990;29;19988;-67
2023/03/14 10:07:52;;;;;;;;;;;;;;;-144.98;100.00;62585.19;4937042;29;19926;-68
2023/03/14 10:10:56;;;;;;;;;;;;;;;-144.98;100.00;62585.19;4936975;29;19926;-67
2023/03/14 10:14:08;;;;;;;;;;;;;;;-144.98;100.00;62585.19;4936941;29;19974;-67
2023/03/14 10:17:13;;;;;;;;;;;;;;;-144.98;100.00;62585.19;4936923;29;20007;-67
2023/03/14 10:20:27;;;;;;;;;;;;;;;-144.98;100.00;62585.19;4930767;29;19962;-66
2023/03/14 10:23:32;;;;;;;;;;;;;;;-144.98;100.00;62585.19;4936670;29;19941;-67
2023/03/14 10:26:36;;;;;;;;;;;;;;;-144.98;100.00;62585.19;4937026;29;20039;-66
2023/03/14 10:29:50;;;;;;;;;;;;;;;-144.98;100.00;62585.19;4936637;29;19973;-65
2023/03/14 10:32:53;;;;;;;;;;;;;;;-144.98;100.00;62585.19;4935147;29;19925;-68
2023/03/14 10:35:58;;;;;;;;;;;;;;;-144.98;100.00;62585.19;4936846;29;19945;-68
2023/03/14 10:39:22;;;;;;;;;;;;;;;-144.98;100.00;62585.19;4936400;29;19926;-67
2023/03/14 10:42:34;;;;;;;;;;;;;;;-144.98;100.00;62585.19;4936274;29;20006;-68
2023/03/14 10:45:38;;;;;;;;;;;;;;;-144.98;100.00;62585.19;4924488;29;19930;-68
2023/03/14 10:48:42;;;;;;;;;;;;;;;-144.98;100.00;62585.19;4931122;29;19978;-67
2023/03/14 10:51:45;;;;;;;;;;;;;;;-144.98;100.00;62585.19;4934911;29;20054;-67
2023/03/14 10:54:53;;;;;;;;;;;;;;;-144.98;100.00;62585.19;4934340;29;20005;-66
2023/03/14 10:57:57;;;;;;;;;;;;;;;-144.98;100.00;62585.19;4936003;29;20384;-66
2023/03/14 11:01:08;;;;;;;;;;;;;;;-144.98;100.00;62585.19;4935990;29;20394;-66
2023/03/14 11:04:25;;;;;;;;;;;;;;;-144.98;100.00;62585.19;4936117;29;19930;-66
2023/03/14 11:07:31;;;;;;;;;;;;;;;-144.98;100.00;62585.19;4924568;29;19926;-66
2023/03/14 11:10:39;;;;;;;;;;;;;;;-144.98;100.00;62585.19;4936174;29;19926;-67
2023/03/14 11:13:52;;;;;;;;;;;;;;;-144.98;100.00;62585.19;4935982;29;20004;-66
2023/03/14 11:17:21;;;;;;;;;;;;;;;-144.98;100.00;62585.19;4913650;29;19941;-66
2023/03/14 11:20:32;;;;;;;;;;;;;;;-144.98;100.00;62585.19;4935508;29;20302;-67
2023/03/14 11:23:47;;;;;;;;;;;;;;;-144.98;100.00;62585.19;4924052;29;20029;-67
2023/03/14 11:27:06;;;;;;;;;;;;;;;-144.98;100.00;62585.19;4935953;29;20426;-67
2023/03/14 11:30:16;;;;;;;;;;;;;;;-144.98;100.00;62585.19;4935805;29;19974;-76
2023/03/14 11:33:31;;;;;;;;;;;;;;;-144.98;100.00;62585.19;4935915;29;19926;-68
2023/03/14 11:36:53;;;;;;;;;;;;;;;-144.98;100.00;62585.19;4924164;29;19926;-68
2023/03/14 11:40:00;;;;;;;;;;;;;;;-144.98;100.00;62585.19;4935807;29;19926;-68
2023/03/14 11:43:15;;;;;;;;;;;;;;;-144.98;100.00;62585.19;4935626;29;20018;-68
2023/03/14 11:46:22;;;;;;;;;;;;;;;-144.98;100.00;62585.19;4935879;29;19929;-67
2023/03/14 11:49:38;;;;;;;;;;;;;;;-144.98;100.00;62585.19;4935534;29;19930;-68
2023/03/14 11:52:54;;;;;;;;;;;;;;;-144.98;100.00;62585.19;4935398;29;19927;-68
2023/03/14 11:55:58;;;;;;;;;;;;;;;-144.98;100.00;62585.19;4935950;29;19947;-68
2023/03/14 11:59:32;;;;;;;;;;;;;;;-144.98;100.00;62585.19;4935690;29;19926;-66
2023/03/14 12:03:00;;;;;;;;;;;;;;;-144.98;100.00;62585.19;4934762;29;19942;-66
2023/03/14 12:06:13;;;;;;;;;;;;;;;-144.98;100.00;62585.19;4935430;29;19991;-67
2023/03/14 12:09:21;;;;;;;;;;;;;;;-144.98;100.00;62585.19;4935059;29;19946;-67
2023/03/14 12:12:26;;;;;;;;;;;;;;;-144.98;100.00;62585.19;4936807;29;19926;-67
2023/03/14 12:15:29;;;;;;;;;;;;;;;-144.98;100.00;62585.19;4939188;29;20405;-68
2023/03/14 12:18:34;;;;;;;;;;;;;;;-144.98;100.00;62585.19;4939051;29;19984;-66
2023/03/14 12:21:49;;;;;;;;;;;;;;;-144.98;100.00;62585.19;4938948;29;20410;-66
2023/03/14 12:24:56;;;;;;;;;;;;;;;-144.98;100.00;62585.19;4938890;29;19946;-67
2023/03/14 12:28:03;;;;;;;;;;;;;;;-144.98;100.00;62585.19;4939027;29;19930;-67
2023/03/14 12:31:25;;;;;;;;;;;;;;;-144.98;100.00;62585.19;4937954;29;19929;-68
2023/03/14 12:34:33;;;;;;;;;;;;;;;-144.98;100.00;62585.19;4937647;29;19966;-68
2023/03/14 12:37:37;;;;;;;;;;;;;;;-144.98;100.00;62585.19;4938593;29;19925;-65
2023/03/14 12:40:50;;;;;;;;;;;;;;;-144.98;100.00;62585.19;4938696;29;20327;-66
2023/03/14 12:43:53;;;;;;;;;;;;;;;-144.98;100.00;62585.19;4938573;29;19942;-65
2023/03/14 12:46:57;;;;;;;;;;;;;;;-144.98;100.00;62585.19;4938499;29;20424;-65
2023/03/14 12:50:07;;;;;;;;;;;;;;;-144.98;100.00;62585.19;4938222;29;20006;-65
2023/03/14 12:53:23;;;;;;;;;;;;;;;-144.98;100.00;62585.19;4937726;29;19965;-66
2023/03/14 12:57:05;;;;;;;;;;;;;;;-144.98;100.00;62585.19;4927737;29;19926;-66
2023/03/14 13:00:18;;;;;;;;;;;;;;;-144.98;100.00;62585.19;4906359;29;19942;-66
2023/03/14 13:03:27;;;;;;;;;;;;;;;-144.98;100.00;62585.19;4938259;29;19961;-70
2023/03/14 13:06:53;;;;;;;;;;;;;;;-144.98;100.00;62585.19;4936798;29;19934;-66
2023/03/14 13:10:01;;;;;;;;;;;;;;;-144.98;100.00;62585.19;4936124;29;20394;-67
2023/03/14 13:13:13;;;;;;;;;;;;;;;-144.98;100.00;62585.19;4936901;29;20418;-63
2023/03/14 13:16:18;;;;;;;;;;;;;;;-144.98;100.00;62585.19;4938338;29;19974;-64
2023/03/14 13:19:25;;;;;;;;;;;;;;;-144.98;100.00;62585.19;4938004;29;19925;-65
2023/03/14 13:22:30;;;;;;;;;;;;;;;-144.98;100.00;62585.19;4926074;29;19965;-64
2023/03/14 13:25:36;;;;;;;;;;;;;;;-144.98;100.00;62585.19;4937733;29;19980;-65
2023/03/14 13:28:39;;;;;;;;;;;;;;;-144.98;100.00;62585.19;4937149;29;20394;-65
2023/03/14 13:31:46;;;;;;;;;;;;;;;-144.98;100.00;62585.19;4932467;29;19926;-65
2023/03/14 13:34:50;;;;;;;;;;;;;;;-144.98;100.00;62585.19;4936093;29;19926;-64
2023/03/14 13:37:55;;;;;;;;;;;;;;;-144.98;100.00;62585.19;4937427;29;19975;-64
2023/03/14 13:41:00;;;;;;;;;;;;;;;-144.98;100.00;62585.19;4937421;29;19926;-75
2023/03/14 13:44:06;;;;;;;;;;;;;;;-144.98;100.00;62585.19;4937222;29;19925;-75
2023/03/14 13:47:17;;;;;;;;;;;;;;;-144.98;100.00;62585.19;4937212;29;19925;-74
2023/03/14 13:50:27;;;;;;;;;;;;;;;-144.98;100.00;62585.19;4937254;29;20026;-74
2023/03/14 13:53:33;;;;;;;;;;;;;;;-144.98;100.00;62585.19;4937566;29;20390;-73
2023/03/14 13:56:36;;;;;;;;;;;;;;;-144.98;100.00;62585.19;4936446;29;20299;-76
2023/03/14 13:59:39;;;;;;;;;;;;;;;-144.98;100.00;62585.19;4936617;29;20390;-74
2023/03/14 14:02:44;;;;;;;;;;;;;;;-144.98;100.00;62585.19;4937290;29;19926;-76
2023/03/14 14:05:50;;;;;;;;;;;;;;;-144.98;100.00;62585.19;4936949;29;19950;-75
2023/03/14 14:09:15;;;;;;;;;;;;;;;-144.98;100.00;62585.19;4936976;29;19926;-74
2023/03/14 14:12:27;;;;;;;;;;;;;;;-144.98;100.00;62585.19;4925249;29;19930;-74
2023/03/14 14:20:36;;;;;;;;;;;;;;;-144.98;100.00;62585.19;4915307;29;20434;-75
2023/03/14 14:23:43;;;;;;;;;;;;;;;-144.98;100.00;62585.19;4935218;29;19926;-75
2023/03/14 14:26:58;;;;;;;;;;;;;;;-144.98;100.00;62585.19;4937119;29;19941;-75
2023/03/14 14:30:21;;;;;;;;;;;;;;;-144.98;100.00;62585.19;4936468;29;20424;-75
2023/03/14 14:33:25;;;;;;;;;;;;;;;-144.98;100.00;62585.19;4936833;29;20585;-75
2023/03/14 14:37:02;;;;;;;;;;;;;;;-144.98;100.00;62585.19;4936138;29;19925;-75
2023/03/14 14:40:18;;;;;;;;;;;;;;;-144.98;100.00;62585.19;4924673;29;19973;-75
2023/03/14 14:43:26;;;;;;;;;;;;;;;-144.98;100.00;62585.19;4936384;29;20352;-75
2023/03/14 14:46:33;;;;;;;;;;;;;;;-144.98;100.00;62585.19;4936268;29;20019;-74
2023/03/14 14:49:38;;;;;;;;;;;;;;;-144.98;100.00;62585.19;4924405;29;20418;-74
2023/03/14 14:52:43;;;;;;;;;;;;;;;-144.98;100.00;62585.19;4936204;29;19926;-74
2023/03/14 14:55:54;;;;;;;;;;;;;;;-144.98;100.00;62585.19;4935591;29;19942;-74
2023/03/14 14:59:08;;;;;;;;;;;;;;;-144.98;100.00;62585.19;4924331;29;20010;-74
2023/03/14 15:02:27;;;;;;;;;;;;;;;-144.98;100.00;62585.19;4936240;29;19926;-76
2023/03/14 15:05:35;;;;;;;;;;;;;;;-144.98;100.00;62585.19;4935140;29;19955;-75
2023/03/14 15:08:39;;;;;;;;;;;;;;;-144.98;100.00;62585.19;4935730;29;19961;-74
2023/03/14 15:11:43;;;;;;;;;;;;;;;-144.98;100.00;62585.19;4936059;29;19977;-75
2023/03/14 15:14:46;;;;;;;;;;;;;;;-144.98;100.00;62585.19;4936052;29;19929;-74
2023/03/14 15:17:49;;;;;;;;;;;;;;;-144.98;100.00;62585.19;4935979;29;20295;-74
2023/03/14 15:20:52;;;;;;;;;;;;;;;-144.98;100.00;62585.19;4936062;29;19926;-72
2023/03/14 15:23:55;;;;;;;;;;;;;;;-144.98;100.00;62585.19;4935714;29;19926;-71
2023/03/14 15:27:02;;;;;;;;;;;;;;;-144.98;100.00;62585.19;4936235;29;20283;-69
2023/03/14 15:30:05;;;;;;;;;;;;;;;-144.98;100.00;62585.19;4936103;29;20030;-68
2023/03/14 15:33:09;;;;;;;;;;;;;;;-144.98;100.00;62585.19;4935868;29;19926;-69
2023/03/14 15:36:30;;;;;;;;;;;;;;;-144.98;100.00;62585.19;4936015;29;20269;-69
2023/03/14 15:39:36;;;;;;;;;;;;;;;-144.98;100.00;62585.19;4935828;29;20284;-69
2023/03/14 15:42:40;;;;;;;;;;;;;;;-144.98;100.00;62585.19;4935792;29;19926;-70
2023/03/14 15:45:43;;;;;;;;;;;;;;;-144.98;100.00;62585.19;4935682;29;19994;-70
2023/03/14 15:48:46;;;;;;;;;;;;;;;-144.98;100.00;62585.19;4939248;29;19929;-70
2023/03/14 15:51:49;;;;;;;;;;;;;;;-144.98;100.00;62585.19;4939258;29;19981;-70
2023/03/14 15:54:53;;;;;;;;;;;;;;;-144.98;100.00;62585.19;4939188;29;20436;-70